Curtin, Australia
Current Conditions -  °F | °C
As of 1:00 PM on Tuesday 21 Oct 2014 (Local Time) from YCIN Reporting Station
Clear Clear  
Wind Chill: 106°   Ceiling: Unl
Heat Index: 106°   Visibility: NA
Dew Point: 37°   Wind: 9mph
Humidity: 10%   Direction: 90°E
Pressure: 29.83"   Gusts: NA
Location:  17.58°S, 123.83°E
Report Text: YCIN 210500Z AUTO 09008KT 050V140 //// // NCD 41/03 Q1010
Loading
Personal Weather Stations






























Interactive Weather Map
Tropical Storm Tracking
New forecast layout! Learn more

10-Day Weather Forecast

Advertisements
Track Severe Weather on mobile